createdAt,value
2019-01-20T00:02:27.306Z,-1.60
2019-01-20T00:04:58.374Z,-1.70
2019-01-20T00:07:29.498Z,-1.80
2019-01-20T00:10:00.604Z,-1.90
2019-01-20T00:12:31.518Z,-1.90
2019-01-20T00:15:02.889Z,-1.80
2019-01-20T00:17:33.969Z,-1.70
2019-01-20T00:20:05.772Z,-1.70
2019-01-20T00:22:36.780Z,-1.40
2019-01-20T00:25:08.588Z,-1.40
2019-01-20T00:27:39.452Z,-1.50
2019-01-20T00:30:11.821Z,-1.40
2019-01-20T00:32:42.826Z,-1.40
2019-01-20T00:35:15.804Z,-1.30
2019-01-20T00:37:47.486Z,-1.40
2019-01-20T00:40:18.608Z,-1.30
2019-01-20T00:42:49.695Z,-1.40
2019-01-20T00:45:20.918Z,-1.30
2019-01-20T00:47:52.059Z,-1.30
2019-01-20T00:50:23.512Z,-1.40
2019-01-20T00:52:54.667Z,-1.40
2019-01-20T00:55:26.202Z,-1.50
2019-01-20T00:57:57.274Z,-1.50
2019-01-20T01:00:31.764Z,-1.50
2019-01-20T01:03:02.791Z,-1.50
2019-01-20T01:05:33.984Z,-1.60
2019-01-20T01:08:05.275Z,-1.60
2019-01-20T01:10:36.411Z,-1.70
2019-01-20T01:13:08.355Z,-1.70
2019-01-20T01:15:39.380Z,-1.90
2019-01-20T01:18:10.411Z,-1.90
2019-01-20T01:20:41.948Z,-1.80
2019-01-20T01:23:13.275Z,-1.90
2019-01-20T01:25:45.320Z,-2.00
2019-01-20T01:28:16.479Z,-2.10
2019-01-20T01:30:47.655Z,-2.10
2019-01-20T01:33:18.619Z,-2.20
2019-01-20T01:35:49.673Z,-2.20
2019-01-20T01:38:20.679Z,-2.10
2019-01-20T01:40:51.691Z,-2.10
2019-01-20T01:43:22.644Z,-2.10
2019-01-20T01:45:53.647Z,-2.00
2019-01-20T01:48:24.598Z,-2.00
2019-01-20T01:50:55.542Z,-1.90
2019-01-20T01:53:26.537Z,-2.00
2019-01-20T01:55:57.568Z,-2.00
2019-01-20T01:58:28.461Z,-2.00
2019-01-20T02:00:59.653Z,-2.10
2019-01-20T02:03:30.811Z,-2.00
2019-01-20T02:06:02.144Z,-2.10
2019-01-20T02:08:33.391Z,-2.10
2019-01-20T02:11:04.783Z,-2.10
2019-01-20T02:13:35.924Z,-2.10
2019-01-20T02:16:07.217Z,-2.20
2019-01-20T02:18:38.562Z,-2.20
2019-01-20T02:21:09.677Z,-2.20
2019-01-20T02:23:40.933Z,-2.20
2019-01-20T02:26:11.997Z,-2.20
2019-01-20T02:28:42.955Z,-2.20
2019-01-20T02:31:14.019Z,-2.20
2019-01-20T02:33:44.962Z,-2.20
2019-01-20T02:36:16.165Z,-2.10
2019-01-20T02:38:47.239Z,-2.00
2019-01-20T02:41:18.358Z,-2.10
2019-01-20T02:43:49.217Z,-2.00
2019-01-20T02:46:20.416Z,-2.00
2019-01-20T02:48:51.354Z,-2.10
2019-01-20T02:51:22.241Z,-2.10
2019-01-20T02:53:53.231Z,-2.10
2019-01-20T02:56:24.358Z,-2.10
2019-01-20T02:58:55.257Z,-2.30
2019-01-20T03:01:26.367Z,-2.40
2019-01-20T03:03:57.300Z,-2.40
2019-01-20T03:06:28.349Z,-2.50
2019-01-20T03:08:59.227Z,-2.60
2019-01-20T03:11:30.151Z,-2.60
2019-01-20T03:14:01.032Z,-2.50
2019-01-20T03:16:32.001Z,-2.50
2019-01-20T03:19:04.325Z,-2.40
2019-01-20T03:21:35.283Z,-2.40
2019-01-20T03:24:06.485Z,-2.40
2019-01-20T03:26:37.551Z,-2.20
2019-01-20T03:29:08.555Z,-2.20
2019-01-20T03:31:39.466Z,-2.10
2019-01-20T03:34:10.314Z,-1.90
2019-01-20T03:37:00.470Z,-1.90
2019-01-20T03:39:31.336Z,-2.00
2019-01-20T03:42:02.319Z,-2.10
2019-01-20T03:44:33.188Z,-2.30
2019-01-20T03:47:05.254Z,-2.40
2019-01-20T03:49:36.197Z,-2.50
2019-01-20T03:52:07.341Z,-2.50
2019-01-20T03:54:38.216Z,-2.50
2019-01-20T03:57:09.337Z,-2.40
2019-01-20T03:59:40.543Z,-2.30
2019-01-20T04:02:11.809Z,-2.30
2019-01-20T04:04:42.850Z,-2.30
2019-01-20T04:07:13.817Z,-2.30
2019-01-20T04:09:50.565Z,-2.20
2019-01-20T04:12:21.739Z,-2.20
2019-01-20T04:14:52.778Z,-2.30
2019-01-20T04:17:24.124Z,-2.40
2019-01-20T04:19:55.342Z,-2.30
2019-01-20T04:22:26.301Z,-2.30
2019-01-20T04:24:57.400Z,-2.30
2019-01-20T04:27:28.414Z,-2.30
2019-01-20T04:29:59.409Z,-2.40
2019-01-20T04:32:49.699Z,-2.40
2019-01-20T04:35:21.843Z,-2.30
2019-01-20T04:37:52.751Z,-2.20
2019-01-20T04:40:24.814Z,-2.20
2019-01-20T04:42:55.805Z,-2.20
2019-01-20T04:45:26.873Z,-2.30
2019-01-20T04:47:57.926Z,-2.40
2019-01-20T04:50:28.979Z,-2.40
2019-01-20T04:53:00.206Z,-2.50
2019-01-20T04:55:31.338Z,-2.50
2019-01-20T04:58:02.383Z,-2.40
2019-01-20T05:00:33.368Z,-2.40
2019-01-20T05:03:04.380Z,-2.40
2019-01-20T05:05:35.337Z,-2.50
2019-01-20T05:08:06.538Z,-2.50
2019-01-20T05:10:37.519Z,-2.50
2019-01-20T05:13:08.510Z,-2.50
2019-01-20T05:15:39.469Z,-2.40
2019-01-20T05:18:10.469Z,-2.30
2019-01-20T05:20:41.435Z,-2.40
2019-01-20T05:23:12.406Z,-2.40
2019-01-20T05:25:43.390Z,-2.30
2019-01-20T05:28:14.290Z,-2.20
2019-01-20T05:30:45.250Z,-2.20
2019-01-20T05:33:16.209Z,-2.20
2019-01-20T05:35:47.164Z,-2.20
2019-01-20T05:38:18.111Z,-2.00
2019-01-20T05:40:48.981Z,-2.00
2019-01-20T05:43:19.900Z,-2.00
2019-01-20T05:45:50.797Z,-2.10
2019-01-20T05:48:21.716Z,-2.20
2019-01-20T05:50:52.573Z,-2.30
2019-01-20T05:53:23.638Z,-2.30
2019-01-20T05:55:54.512Z,-2.30
2019-01-20T05:58:26.742Z,-2.40
2019-01-20T06:00:57.614Z,-2.40
2019-01-20T06:03:28.511Z,-2.40
2019-01-20T06:05:59.398Z,-2.50
2019-01-20T06:08:30.716Z,-2.40
2019-01-20T06:11:01.638Z,-2.40
2019-01-20T06:13:32.590Z,-2.50
2019-01-20T06:16:03.456Z,-2.50
2019-01-20T06:18:34.361Z,-2.50
2019-01-20T06:21:05.316Z,-2.60
2019-01-20T06:23:36.202Z,-2.50
2019-01-20T06:26:07.130Z,-2.50
2019-01-20T06:28:39.532Z,-2.60
2019-01-20T06:31:10.584Z,-2.60
2019-01-20T06:33:41.760Z,-2.40
2019-01-20T06:36:12.748Z,-2.40
2019-01-20T06:38:43.817Z,-2.30
2019-01-20T06:41:26.932Z,-2.30
2019-01-20T06:43:57.860Z,-2.30
2019-01-20T06:46:28.764Z,-2.30
2019-01-20T06:49:19.165Z,-2.30
2019-01-20T06:51:50.214Z,-2.20
2019-01-20T06:54:21.132Z,-2.20
2019-01-20T06:56:52.052Z,-2.20
2019-01-20T06:59:24.532Z,-2.30
2019-01-20T07:01:55.516Z,-2.40
2019-01-20T07:04:26.536Z,-2.40
2019-01-20T07:06:58.284Z,-2.30
2019-01-20T07:09:29.249Z,-2.40
2019-01-20T07:12:00.172Z,-2.30
2019-01-20T07:14:32.841Z,-2.30
2019-01-20T07:17:05.928Z,-2.20
2019-01-20T07:19:39.097Z,-2.30
2019-01-20T07:22:12.519Z,-2.30
2019-01-20T07:24:43.637Z,-2.20
2019-01-20T07:27:14.566Z,-2.30
2019-01-20T07:29:45.408Z,-2.20
2019-01-20T07:32:16.445Z,-2.20
2019-01-20T07:34:47.344Z,-2.20
2019-01-20T07:37:18.339Z,-2.20
2019-01-20T07:39:49.280Z,-2.20
2019-01-20T07:42:20.150Z,-2.20
2019-01-20T07:44:51.122Z,-2.20
2019-01-20T07:47:21.988Z,-2.30
2019-01-20T07:49:52.999Z,-2.40
2019-01-20T07:52:23.977Z,-2.30
2019-01-20T07:54:55.422Z,-2.30
2019-01-20T07:57:26.587Z,-2.40
2019-01-20T07:59:57.618Z,-2.30
2019-01-20T08:02:31.149Z,-2.20
2019-01-20T08:05:02.192Z,-2.10
2019-01-20T08:07:34.242Z,-2.00
2019-01-20T08:10:08.316Z,-2.10
2019-01-20T08:12:39.284Z,-2.10
2019-01-20T08:15:11.842Z,-2.10
2019-01-20T08:17:42.992Z,-2.00
2019-01-20T08:20:17.370Z,-1.90
2019-01-20T08:22:48.608Z,-1.90
2019-01-20T08:25:20.533Z,-1.80
2019-01-20T08:27:51.500Z,-1.80
2019-01-20T08:30:26.339Z,-1.70
2019-01-20T08:32:57.671Z,-1.70
2019-01-20T08:35:28.682Z,-1.60
2019-01-20T08:37:59.747Z,-1.60
2019-01-20T08:40:34.499Z,-1.70
2019-01-20T08:43:05.722Z,-1.60
2019-01-20T08:46:29.063Z,-1.50
2019-01-20T08:48:59.987Z,-1.40
2019-01-20T08:51:31.627Z,-1.40
2019-01-20T08:54:02.628Z,-1.50
2019-01-20T08:56:34.839Z,-1.50
2019-01-20T08:59:06.029Z,-1.50
2019-01-20T09:01:37.280Z,-1.40
2019-01-20T09:04:09.048Z,-1.40
2019-01-20T09:06:40.524Z,-1.30
2019-01-20T09:09:11.608Z,-1.20
2019-01-20T09:11:43.023Z,-1.00
2019-01-20T09:14:14.085Z,-1.10
2019-01-20T09:16:45.205Z,-1.00
2019-01-20T09:19:16.398Z,-0.90
2019-01-20T09:21:47.473Z,-1.00
2019-01-20T09:24:18.539Z,-0.80
2019-01-20T09:26:49.681Z,-0.70
2019-01-20T09:29:20.761Z,-0.50
2019-01-20T09:31:51.910Z,-0.60
2019-01-20T09:34:22.991Z,-0.70
2019-01-20T09:36:54.022Z,-0.70
2019-01-20T09:39:24.982Z,-0.70
2019-01-20T09:41:55.980Z,-0.60
2019-01-20T09:44:26.886Z,-0.60
2019-01-20T09:46:57.858Z,-0.60
2019-01-20T09:49:28.846Z,-0.50
2019-01-20T09:51:59.819Z,-0.40
2019-01-20T09:54:30.931Z,-0.50
2019-01-20T09:57:01.917Z,-0.60
2019-01-20T09:59:33.016Z,-0.70
2019-01-20T10:02:04.155Z,-0.50
2019-01-20T10:04:35.266Z,-0.30
2019-01-20T10:07:06.713Z,-0.30
2019-01-20T10:09:37.654Z,-0.20
2019-01-20T10:12:08.687Z,-0.30
2019-01-20T10:14:39.698Z,-0.20
2019-01-20T10:17:10.712Z,-0.10
2019-01-20T10:19:42.131Z,-0.20
2019-01-20T10:22:13.151Z,-0.20
2019-01-20T10:24:44.053Z,-0.40
2019-01-20T10:27:15.045Z,-0.40
2019-01-20T10:29:45.979Z,-0.30
2019-01-20T10:32:17.060Z,-0.30
2019-01-20T10:34:48.408Z,-0.30
2019-01-20T10:37:19.754Z,-0.20
2019-01-20T10:39:50.922Z,-0.20
2019-01-20T10:42:22.783Z,-0.30
2019-01-20T10:44:54.529Z,-0.30
2019-01-20T10:47:26.563Z,-0.30
2019-01-20T10:49:57.769Z,-0.30
2019-01-20T10:52:31.143Z,-0.30
2019-01-20T10:58:19.568Z,-0.30
2019-01-20T11:00:57.141Z,-0.20
2019-01-20T11:03:29.295Z,-0.20
2019-01-20T11:06:06.701Z,-0.20
2019-01-20T11:08:40.314Z,-0.10
2019-01-20T11:11:29.591Z,-0.10
2019-01-20T11:14:00.945Z,-0.20
2019-01-20T11:16:32.836Z,-0.30
2019-01-20T11:19:05.642Z,-0.30
2019-01-20T11:21:37.918Z,-0.20
2019-01-20T11:24:09.255Z,-0.20
2019-01-20T11:26:40.744Z,0.00
2019-01-20T11:29:12.840Z,0.00
2019-01-20T11:31:44.070Z,0.10
2019-01-20T11:34:15.166Z,0.10
2019-01-20T11:36:46.191Z,0.20
2019-01-20T11:39:17.129Z,0.30
2019-01-20T11:41:48.092Z,0.30
2019-01-20T11:44:19.359Z,0.30
2019-01-20T11:46:50.562Z,0.40
2019-01-20T11:49:21.577Z,0.40
2019-01-20T11:51:52.819Z,0.50
2019-01-20T11:54:23.885Z,0.60
2019-01-20T11:56:55.878Z,0.60
2019-01-20T11:59:26.873Z,0.70
2019-01-20T12:01:57.826Z,0.80
2019-01-20T12:04:39.400Z,0.80
2019-01-20T12:07:10.773Z,0.90
2019-01-20T12:09:42.107Z,0.90
2019-01-20T12:12:13.402Z,0.90
2019-01-20T12:14:44.785Z,0.90
2019-01-20T12:17:16.581Z,1.00
2019-01-20T12:19:48.080Z,0.90
2019-01-20T12:22:19.460Z,0.90
2019-01-20T12:24:53.584Z,0.90
2019-01-20T12:27:32.127Z,0.90
2019-01-20T12:30:03.395Z,1.00
2019-01-20T12:32:34.358Z,1.00
2019-01-20T12:35:05.887Z,1.10
2019-01-20T12:37:38.493Z,1.00
2019-01-20T12:40:24.606Z,1.10
2019-01-20T12:42:56.771Z,1.20
2019-01-20T12:45:27.919Z,1.20
2019-01-20T12:48:00.774Z,1.20
2019-01-20T12:50:31.704Z,1.30
2019-01-20T12:53:02.645Z,1.30
2019-01-20T12:55:48.401Z,1.30
2019-01-20T12:58:19.878Z,1.30
2019-01-20T13:00:51.121Z,1.30
2019-01-20T13:03:24.518Z,1.20
2019-01-20T13:05:55.762Z,1.20
2019-01-20T13:08:26.885Z,1.20
2019-01-20T13:10:57.828Z,1.10
2019-01-20T13:13:32.021Z,1.10
2019-01-20T13:16:04.729Z,1.10
2019-01-20T13:18:36.876Z,1.10
2019-01-20T13:21:08.146Z,1.10
2019-01-20T13:23:39.409Z,1.10
2019-01-20T13:26:10.327Z,1.10
2019-01-20T13:28:41.411Z,1.10
2019-01-20T13:31:12.502Z,1.10
2019-01-20T13:33:43.406Z,1.20
2019-01-20T13:36:14.484Z,1.10
2019-01-20T13:38:45.479Z,1.00
2019-01-20T13:41:22.815Z,0.90
2019-01-20T13:43:55.677Z,0.90
2019-01-20T13:46:30.021Z,0.90
2019-01-20T13:49:01.061Z,0.80
2019-01-20T13:51:32.205Z,0.60
2019-01-20T13:54:03.379Z,0.60
2019-01-20T13:56:34.379Z,0.50
2019-01-20T13:59:05.447Z,0.30
2019-01-20T14:01:36.580Z,0.30
2019-01-20T14:04:07.681Z,0.20
2019-01-20T14:06:38.735Z,0.10
2019-01-20T14:09:10.621Z,0.00
2019-01-20T14:11:41.879Z,0.00
2019-01-20T14:14:12.877Z,-0.10
2019-01-20T14:16:43.767Z,-0.10
2019-01-20T14:19:21.506Z,-0.30
2019-01-20T14:21:48.483Z,-0.40
2019-01-20T14:24:19.562Z,-0.60
2019-01-20T14:26:50.903Z,-0.70
2019-01-20T14:29:21.903Z,-0.70
2019-01-20T14:31:52.854Z,-0.50
2019-01-20T14:34:23.865Z,-0.70
2019-01-20T14:36:54.810Z,-0.70
2019-01-20T14:39:25.760Z,-0.70
2019-01-20T14:41:56.804Z,-0.80
2019-01-20T14:44:27.703Z,-0.90
2019-01-20T14:46:58.771Z,-0.90
2019-01-20T14:49:30.789Z,-1.00
2019-01-20T14:52:01.757Z,-1.10
2019-01-20T14:54:32.948Z,-1.00
2019-01-20T14:57:04.505Z,-1.00
2019-01-20T14:59:35.761Z,-0.80
2019-01-20T15:02:06.904Z,-0.90
2019-01-20T15:04:38.072Z,-1.00
2019-01-20T15:07:09.349Z,-1.10
2019-01-20T15:09:40.541Z,-1.10
2019-01-20T15:12:11.754Z,-1.20
2019-01-20T15:14:42.888Z,-1.20
2019-01-20T15:17:14.062Z,-1.20
2019-01-20T15:19:45.062Z,-1.10
2019-01-20T15:22:17.076Z,-1.20
2019-01-20T15:24:48.070Z,-1.30
2019-01-20T15:27:18.983Z,-1.40
2019-01-20T15:29:50.001Z,-1.50
2019-01-20T15:32:20.994Z,-1.60
2019-01-20T15:34:51.996Z,-1.60
2019-01-20T15:37:42.640Z,-1.60
2019-01-20T15:40:15.535Z,-1.80
2019-01-20T15:42:47.236Z,-1.90
2019-01-20T15:45:19.862Z,-1.90
2019-01-20T15:47:52.556Z,-2.00
2019-01-20T15:50:29.970Z,-2.00
2019-01-20T15:53:01.949Z,-2.10
2019-01-20T15:55:33.217Z,-2.00
2019-01-20T15:58:04.421Z,-2.10
2019-01-20T16:00:35.387Z,-2.10
2019-01-20T16:03:06.698Z,-2.00
2019-01-20T16:05:37.618Z,-2.00
2019-01-20T16:08:08.591Z,-2.00
2019-01-20T16:10:39.574Z,-1.80
2019-01-20T16:13:10.577Z,-1.70
2019-01-20T16:15:41.556Z,-1.70
2019-01-20T16:18:14.298Z,-1.70
2019-01-20T16:20:45.213Z,-1.70
2019-01-20T16:23:16.360Z,-1.80
2019-01-20T16:25:47.494Z,-1.70
2019-01-20T16:28:19.034Z,-1.70
2019-01-20T16:30:52.732Z,-1.70
2019-01-20T16:33:25.034Z,-1.70
2019-01-20T16:35:56.158Z,-1.70
2019-01-20T16:38:46.380Z,-1.70
2019-01-20T16:41:17.590Z,-1.60
2019-01-20T16:43:48.787Z,-1.40
2019-01-20T16:46:19.929Z,-1.30
2019-01-20T16:48:51.119Z,-1.40
2019-01-20T16:51:25.155Z,-1.20
2019-01-20T16:53:56.465Z,-1.10
2019-01-20T16:56:27.842Z,-1.20
2019-01-20T16:58:58.967Z,-1.30
2019-01-20T17:01:30.086Z,-1.40
2019-01-20T17:04:01.254Z,-1.40
2019-01-20T17:06:32.744Z,-1.40
2019-01-20T17:09:05.309Z,-1.20
2019-01-20T17:11:36.620Z,-1.30
2019-01-20T17:14:07.798Z,-1.20
2019-01-20T17:16:38.915Z,-1.10
2019-01-20T17:19:17.222Z,-1.30
2019-01-20T17:21:42.783Z,-1.20
2019-01-20T17:24:13.804Z,-1.30
2019-01-20T17:26:44.766Z,-1.30
2019-01-20T17:29:15.690Z,-1.50
2019-01-20T17:31:46.751Z,-1.50
2019-01-20T17:34:17.753Z,-1.30
2019-01-20T17:36:48.740Z,-1.30
2019-01-20T17:39:19.776Z,-1.50
2019-01-20T17:41:50.714Z,-1.50
2019-01-20T17:44:21.714Z,-1.50
2019-01-20T17:46:52.720Z,-1.60
2019-01-20T17:49:23.729Z,-1.70
2019-01-20T17:51:58.279Z,-1.60
2019-01-20T17:54:29.455Z,-1.50
2019-01-20T17:57:00.501Z,-1.30
2019-01-20T17:59:32.068Z,-1.30
2019-01-20T18:02:07.219Z,-1.30
2019-01-20T18:04:38.484Z,-1.20
2019-01-20T18:07:09.713Z,-1.30
2019-01-20T18:09:40.920Z,-1.40
2019-01-20T18:12:11.967Z,-1.30
2019-01-20T18:14:43.335Z,-1.30
2019-01-20T18:17:14.209Z,-1.30
2019-01-20T18:19:45.428Z,-1.30
2019-01-20T18:22:16.693Z,-1.30
2019-01-20T18:24:51.563Z,-1.30
2019-01-20T18:27:22.617Z,-1.30
2019-01-20T18:29:53.685Z,-1.40
2019-01-20T18:32:24.633Z,-1.40
2019-01-20T18:34:55.979Z,-1.30
2019-01-20T18:37:26.991Z,-1.40
2019-01-20T18:39:58.109Z,-1.50
2019-01-20T18:42:31.441Z,-1.60
2019-01-20T18:45:02.760Z,-1.60
2019-01-20T18:47:36.535Z,-1.50
2019-01-20T18:50:09.579Z,-1.60
2019-01-20T18:52:43.963Z,-1.70
2019-01-20T18:55:15.834Z,-1.80
2019-01-20T18:57:47.339Z,-2.00
2019-01-20T19:00:33.291Z,-1.80
2019-01-20T19:03:04.742Z,-1.80
2019-01-20T19:05:36.018Z,-1.70
2019-01-20T19:08:08.134Z,-1.80
2019-01-20T19:10:39.340Z,-1.80
2019-01-20T19:13:10.738Z,-1.80
2019-01-20T19:15:43.947Z,-1.70
2019-01-20T19:18:19.153Z,-1.70
2019-01-20T19:20:54.589Z,-1.80
2019-01-20T19:23:25.591Z,-1.90
2019-01-20T19:25:57.724Z,-1.90
2019-01-20T19:28:28.982Z,-1.70
2019-01-20T19:31:00.136Z,-1.80
2019-01-20T19:33:33.662Z,-1.70
2019-01-20T19:36:04.857Z,-1.80
2019-01-20T19:38:35.834Z,-1.70
2019-01-20T19:41:06.972Z,-1.80
2019-01-20T19:43:38.028Z,-1.90
2019-01-20T19:46:16.093Z,-1.80
2019-01-20T19:48:42.738Z,-1.80
2019-01-20T19:51:13.895Z,-1.70
2019-01-20T19:53:44.920Z,-1.80
2019-01-20T19:56:18.069Z,-1.80
2019-01-20T19:59:00.324Z,-1.70
2019-01-20T20:01:30.789Z,-1.60
2019-01-20T20:03:59.017Z,-1.40
2019-01-20T20:06:35.045Z,-1.70
2019-01-20T20:09:12.714Z,-1.70
2019-01-20T20:11:43.830Z,-1.80
2019-01-20T20:14:14.938Z,-1.80
2019-01-20T20:16:45.870Z,-1.70
2019-01-20T20:19:16.813Z,-1.70
2019-01-20T20:21:47.824Z,-1.70
2019-01-20T20:24:25.120Z,-1.80
2019-01-20T20:26:51.550Z,-1.80
2019-01-20T20:29:22.515Z,-1.90
2019-01-20T20:32:12.998Z,-1.80
2019-01-20T20:34:44.938Z,-1.80
2019-01-20T20:37:15.914Z,-1.90
2019-01-20T20:39:46.865Z,-1.90
2019-01-20T20:42:17.879Z,-1.90
2019-01-20T20:44:48.797Z,-1.80
2019-01-20T20:47:19.889Z,-1.70
2019-01-20T20:49:50.913Z,-1.70
2019-01-20T20:52:21.973Z,-1.80
2019-01-20T20:54:53.135Z,-1.90
2019-01-20T20:57:24.941Z,-2.20
2019-01-20T20:59:56.165Z,-2.20
2019-01-20T21:02:27.429Z,-2.20
2019-01-20T21:04:58.472Z,-2.00
2019-01-20T21:07:29.614Z,-1.80
2019-01-20T21:10:00.734Z,-2.00
2019-01-20T21:12:31.939Z,-2.00
2019-01-20T21:15:03.620Z,-1.90
2019-01-20T21:17:35.287Z,-1.80
2019-01-20T21:20:09.995Z,-1.80
2019-01-20T21:22:41.009Z,-2.00
2019-01-20T21:25:12.922Z,-2.10
2019-01-20T21:28:03.167Z,-2.10
2019-01-20T21:30:34.664Z,-2.20
2019-01-20T21:33:06.159Z,-2.20
2019-01-20T21:35:37.671Z,-2.10
2019-01-20T21:38:09.263Z,-2.30
2019-01-20T21:40:40.592Z,-2.20
2019-01-20T21:43:11.882Z,-2.10
2019-01-20T21:45:43.118Z,-2.20
2019-01-20T21:48:14.216Z,-2.20
2019-01-20T21:50:45.513Z,-2.20
2019-01-20T21:53:16.661Z,-2.20
2019-01-20T21:55:49.505Z,-2.20
2019-01-20T21:58:20.719Z,-2.20
2019-01-20T22:00:53.457Z,-2.20
2019-01-20T22:03:24.540Z,-2.30
2019-01-20T22:05:55.564Z,-2.20
2019-01-20T22:08:26.610Z,-2.30
2019-01-20T22:10:57.615Z,-2.40
2019-01-20T22:13:28.693Z,-2.40
2019-01-20T22:15:59.660Z,-2.40
2019-01-20T22:18:30.700Z,-2.30
2019-01-20T22:21:01.801Z,-2.30
2019-01-20T22:23:32.791Z,-2.30
2019-01-20T22:26:06.162Z,-2.40
2019-01-20T22:28:37.186Z,-2.30
2019-01-20T22:31:08.258Z,-2.30
2019-01-20T22:33:39.190Z,-2.20
2019-01-20T22:36:10.230Z,-2.00
2019-01-20T22:38:41.265Z,-2.00
2019-01-20T22:41:12.254Z,-2.10
2019-01-20T22:43:43.527Z,-2.20
2019-01-20T22:46:14.642Z,-2.30
2019-01-20T22:48:45.659Z,-2.40
2019-01-20T22:51:16.745Z,-2.40
2019-01-20T22:53:47.752Z,-2.40
2019-01-20T22:56:19.804Z,-2.40
2019-01-20T22:58:51.156Z,-2.50
2019-01-20T23:01:24.242Z,-2.50
2019-01-20T23:03:55.918Z,-2.40
2019-01-20T23:06:27.106Z,-2.10
2019-01-20T23:08:58.570Z,-2.00
2019-01-20T23:11:29.688Z,-1.90
2019-01-20T23:14:00.700Z,-2.00
2019-01-20T23:16:32.748Z,-2.10
2019-01-20T23:19:03.776Z,-2.10
2019-01-20T23:21:34.695Z,-2.20
2019-01-20T23:24:06.151Z,-2.30
2019-01-20T23:26:37.202Z,-2.10
2019-01-20T23:29:08.256Z,-2.10
2019-01-20T23:31:39.322Z,-2.10
2019-01-20T23:34:10.402Z,-2.20
2019-01-20T23:36:41.435Z,-2.10
2019-01-20T23:39:12.513Z,-2.20
2019-01-20T23:41:43.720Z,-2.30
2019-01-20T23:44:16.882Z,-2.40
2019-01-20T23:46:47.823Z,-2.40
2019-01-20T23:49:18.862Z,-2.30
2019-01-20T23:51:49.859Z,-2.10
2019-01-20T23:54:20.782Z,-2.20
2019-01-20T23:56:51.668Z,-2.20
2019-01-20T23:59:22.726Z,-2.30
